createdAt,value
2023-05-10T00:03:11.782Z,15.10
2023-05-10T00:08:13.915Z,15.10
2023-05-10T00:13:15.781Z,15.10
2023-05-10T00:18:32.919Z,15.00
2023-05-10T00:23:34.714Z,14.90
2023-05-10T00:28:36.984Z,15.00
2023-05-10T00:33:38.757Z,15.00
2023-05-10T00:38:41.423Z,14.80
2023-05-10T00:43:43.214Z,14.90
2023-05-10T00:48:45.938Z,14.60
2023-05-10T00:53:48.060Z,14.20
2023-05-10T00:59:05.188Z,15.50
2023-05-10T01:04:11.705Z,14.30
2023-05-10T01:09:13.460Z,14.30
2023-05-10T01:14:24.138Z,14.40
2023-05-10T01:19:31.592Z,14.40
2023-05-10T01:25:03.784Z,14.20
2023-05-10T01:35:41.130Z,14.10
2023-05-10T01:41:01.088Z,14.10
2023-05-10T01:46:15.445Z,14.10
2023-05-10T01:51:30.325Z,14.10
2023-05-10T01:56:42.056Z,13.80
2023-05-10T02:01:52.099Z,13.80
2023-05-10T02:07:03.106Z,13.70
2023-05-10T02:12:07.507Z,13.30
2023-05-10T02:17:10.636Z,13.30
2023-05-10T02:22:17.266Z,13.30
2023-05-10T02:27:24.228Z,13.50
2023-05-10T02:32:30.962Z,13.20
2023-05-10T02:37:34.081Z,13.40
2023-05-10T02:42:38.697Z,13.30
2023-05-10T02:47:40.716Z,13.10
2023-05-10T02:52:54.680Z,13.30
2023-05-10T02:58:01.042Z,13.50
2023-05-10T03:03:03.133Z,13.60
2023-05-10T03:08:05.861Z,13.60
2023-05-10T03:13:55.106Z,13.50
2023-05-10T03:19:15.134Z,13.50
2023-05-10T03:24:20.630Z,13.50
2023-05-10T03:29:23.919Z,13.50
2023-05-10T03:34:26.669Z,13.30
2023-05-10T03:39:28.514Z,13.50
2023-05-10T03:44:30.721Z,13.60
2023-05-10T03:49:32.503Z,13.40
2023-05-10T03:54:34.326Z,13.50
2023-05-10T03:59:36.416Z,13.60
2023-05-10T04:04:38.209Z,13.60
2023-05-10T04:09:39.962Z,13.70
2023-05-10T04:14:41.846Z,13.70
2023-05-10T04:19:43.664Z,13.80
2023-05-10T04:24:45.584Z,13.70
2023-05-10T04:29:47.372Z,13.80
2023-05-10T04:34:49.350Z,13.80
2023-05-10T04:39:51.241Z,13.60
2023-05-10T04:44:53.153Z,13.60
2023-05-10T04:49:54.989Z,13.60
2023-05-10T04:54:56.893Z,13.40
2023-05-10T04:59:58.848Z,13.70
2023-05-10T05:05:00.754Z,13.60
2023-05-10T05:10:02.532Z,13.70
2023-05-10T05:15:04.810Z,14.00
2023-05-10T05:20:07.294Z,14.00
2023-05-10T05:25:10.006Z,13.90
2023-05-10T05:30:12.209Z,13.60
2023-05-10T05:35:14.184Z,13.80
2023-05-10T05:40:16.100Z,13.80
2023-05-10T05:45:18.270Z,13.90
2023-05-10T05:50:20.387Z,14.00
2023-05-10T05:55:22.335Z,14.10
2023-05-10T06:00:24.261Z,13.70
2023-05-10T06:05:26.144Z,14.00
2023-05-10T06:10:28.093Z,14.10
2023-05-10T06:15:30.015Z,14.10
2023-05-10T06:20:32.734Z,14.50
2023-05-10T06:25:36.274Z,14.50
2023-05-10T06:30:38.091Z,14.50
2023-05-10T06:35:39.963Z,14.40
2023-05-10T06:40:45.034Z,14.50
2023-05-10T06:45:47.114Z,14.60
2023-05-10T06:50:48.819Z,14.80
2023-05-10T06:55:50.813Z,15.10
2023-05-10T07:00:52.772Z,14.90
2023-05-10T07:05:54.758Z,16.00
2023-05-10T07:11:04.532Z,15.00
2023-05-10T07:16:07.423Z,15.00
2023-05-10T07:21:09.662Z,14.80
2023-05-10T07:26:11.951Z,14.50
2023-05-10T07:31:13.769Z,14.80
2023-05-10T07:36:15.534Z,14.60
2023-05-10T07:41:17.346Z,14.90
2023-05-10T07:46:20.745Z,14.80
2023-05-10T07:51:22.654Z,15.30
2023-05-10T07:56:33.185Z,15.30
2023-05-10T08:01:35.920Z,15.10
2023-05-10T08:06:37.703Z,15.00
2023-05-10T08:11:39.591Z,15.10
2023-05-10T08:16:41.573Z,15.10
2023-05-10T08:21:44.278Z,15.40
2023-05-10T08:26:46.083Z,15.00
2023-05-10T08:31:47.920Z,15.40
2023-05-10T08:36:49.680Z,15.20
2023-05-10T08:41:55.024Z,15.40
2023-05-10T08:46:58.546Z,15.80
2023-05-10T08:52:05.091Z,16.00
2023-05-10T08:57:07.595Z,16.20
2023-05-10T09:02:12.710Z,15.50
2023-05-10T09:07:14.577Z,16.00
2023-05-10T09:12:17.311Z,15.80
2023-05-10T09:17:19.479Z,16.20
2023-05-10T09:22:21.332Z,16.30
2023-05-10T09:27:32.293Z,16.10
2023-05-10T09:32:37.606Z,16.20
2023-05-10T09:37:44.166Z,16.50
2023-05-10T09:42:56.103Z,16.70
2023-05-10T09:47:58.565Z,16.80
2023-05-10T09:53:02.520Z,16.40
2023-05-10T09:58:05.386Z,17.10
2023-05-10T10:03:07.982Z,16.90
2023-05-10T10:08:10.243Z,17.40
2023-05-10T10:13:12.046Z,17.10
2023-05-10T10:18:16.309Z,16.80
2023-05-10T10:23:18.352Z,16.80
2023-05-10T10:28:30.899Z,16.40
2023-05-10T10:33:53.862Z,16.20
2023-05-10T10:39:00.457Z,16.20
2023-05-10T10:44:27.473Z,16.60
2023-05-10T10:49:34.258Z,16.60
2023-05-10T10:54:39.197Z,16.90
2023-05-10T10:59:45.138Z,17.30
2023-05-10T11:04:47.738Z,17.20
2023-05-10T11:09:49.669Z,17.40
2023-05-10T11:14:52.404Z,17.30
2023-05-10T11:20:16.054Z,17.90
2023-05-10T11:25:18.675Z,17.30
2023-05-10T11:30:21.197Z,16.30
2023-05-10T11:35:23.055Z,15.80
2023-05-10T11:40:25.542Z,15.80
2023-05-10T11:45:28.664Z,15.60
2023-05-10T11:50:30.520Z,15.70
2023-05-10T11:55:34.814Z,15.90
2023-05-10T12:00:36.704Z,16.20
2023-05-10T12:05:40.151Z,16.70
2023-05-10T12:10:43.076Z,16.70
2023-05-10T12:15:45.030Z,16.70
2023-05-10T12:20:46.827Z,16.00
2023-05-10T12:25:48.815Z,15.80
2023-05-10T12:30:58.247Z,16.00
2023-05-10T12:36:04.314Z,16.00
2023-05-10T12:41:11.249Z,16.10
2023-05-10T12:46:18.178Z,15.90
2023-05-10T12:51:23.022Z,16.20
2023-05-10T12:56:24.933Z,16.50
2023-05-10T13:01:26.815Z,16.80
2023-05-10T13:06:28.932Z,17.10
2023-05-10T13:11:30.914Z,17.30
2023-05-10T13:16:36.749Z,17.00
2023-05-10T13:21:38.589Z,17.20
2023-05-10T13:26:41.815Z,17.10
2023-05-10T13:31:43.737Z,16.80
2023-05-10T13:36:49.857Z,16.50
2023-05-10T13:41:52.342Z,16.20
2023-05-10T13:46:55.301Z,16.20
2023-05-10T13:52:13.058Z,16.20
2023-05-10T13:57:31.905Z,16.70
2023-05-10T14:02:33.864Z,16.70
2023-05-10T14:07:35.946Z,17.00
2023-05-10T14:12:37.926Z,16.80
2023-05-10T14:17:39.773Z,17.10
2023-05-10T14:22:41.921Z,17.00
2023-05-10T14:27:43.840Z,17.00
2023-05-10T14:33:02.146Z,16.70
2023-05-10T14:38:06.689Z,17.00
2023-05-10T14:43:09.054Z,17.10
2023-05-10T14:48:15.458Z,17.00
2023-05-10T14:53:17.529Z,17.00
2023-05-10T14:58:34.537Z,16.60
2023-05-10T15:03:51.822Z,16.30
2023-05-10T15:08:54.279Z,16.60
2023-05-10T15:13:56.378Z,16.30
2023-05-10T15:18:58.192Z,16.30
2023-05-10T15:24:01.851Z,16.50
2023-05-10T15:29:03.616Z,16.40
2023-05-10T15:34:05.621Z,16.50
2023-05-10T15:39:07.568Z,16.40
2023-05-10T15:44:25.207Z,16.30
2023-05-10T15:49:27.021Z,16.20
2023-05-10T15:54:29.117Z,16.30
2023-05-10T15:59:30.932Z,15.90
2023-05-10T16:04:32.759Z,16.40
2023-05-10T16:09:34.587Z,16.60
2023-05-10T16:14:36.586Z,16.40
2023-05-10T16:19:53.617Z,16.20
2023-05-10T16:24:56.597Z,16.30
2023-05-10T16:29:58.347Z,16.10
2023-05-10T16:35:00.462Z,16.20
2023-05-10T16:40:18.147Z,16.00
2023-05-10T16:45:20.091Z,16.20
2023-05-10T16:50:22.279Z,16.00
2023-05-10T16:55:26.350Z,15.90
2023-05-10T17:00:28.329Z,15.90
2023-05-10T17:05:30.443Z,15.90
2023-05-10T17:10:32.416Z,15.90
2023-05-10T17:15:38.136Z,15.90
2023-05-10T17:20:40.058Z,16.00
2023-05-10T17:30:44.904Z,15.80
2023-05-10T17:35:47.051Z,16.00
2023-05-10T17:40:49.195Z,15.90
2023-05-10T17:50:54.806Z,15.70
2023-05-10T18:11:13.249Z,15.40
2023-05-10T18:16:15.291Z,15.30
2023-05-10T18:21:17.774Z,15.10
2023-05-10T18:26:19.921Z,15.10
2023-05-10T18:31:22.149Z,16.00
2023-05-10T18:36:24.307Z,14.80
2023-05-10T18:41:28.946Z,14.80
2023-05-10T18:46:30.941Z,14.70
2023-05-10T18:51:33.420Z,14.60
2023-05-10T19:01:38.254Z,14.30
2023-05-10T19:11:44.102Z,14.20
2023-05-10T19:16:47.318Z,15.20
2023-05-10T19:26:52.359Z,14.00
2023-05-10T19:31:54.318Z,14.00
2023-05-10T19:36:59.075Z,15.80
2023-05-10T19:42:01.014Z,13.80
2023-05-10T19:47:06.398Z,13.80
2023-05-10T19:52:10.829Z,13.70
2023-05-10T19:57:14.025Z,13.70
2023-05-10T20:02:15.930Z,13.70
2023-05-10T20:12:20.923Z,13.60
2023-05-10T20:17:22.619Z,13.50
2023-05-10T20:22:26.297Z,13.50
2023-05-10T20:27:28.154Z,13.40
2023-05-10T20:32:30.323Z,13.30
2023-05-10T20:37:32.921Z,13.30
2023-05-10T20:47:37.128Z,13.10
2023-05-10T20:52:40.289Z,13.10
2023-05-10T20:57:42.259Z,13.10
2023-05-10T21:02:45.782Z,13.30
2023-05-10T21:07:48.260Z,13.10
2023-05-10T21:12:50.064Z,13.10
2023-05-10T21:17:54.046Z,12.90
2023-05-10T21:27:58.485Z,12.90
2023-05-10T21:33:01.770Z,13.30
2023-05-10T21:38:03.693Z,12.70
2023-05-10T21:48:08.351Z,12.70
2023-05-10T21:53:10.173Z,15.30
2023-05-10T21:58:11.975Z,12.70
2023-05-10T22:03:14.372Z,14.60
2023-05-10T22:08:16.679Z,12.60
2023-05-10T22:13:18.653Z,13.60
2023-05-10T22:18:20.500Z,12.50
2023-05-10T22:23:22.493Z,13.10
2023-05-10T22:28:24.157Z,12.40
2023-05-10T22:33:26.037Z,12.50
2023-05-10T22:38:28.138Z,12.50
2023-05-10T22:48:35.548Z,12.50
2023-05-10T22:58:40.330Z,12.40
2023-05-10T23:08:44.942Z,12.30
2023-05-10T23:13:46.927Z,12.30
2023-05-10T23:18:48.718Z,12.30
2023-05-10T23:23:51.385Z,12.50
2023-05-10T23:33:56.596Z,12.20
2023-05-10T23:44:02.907Z,12.30
2023-05-10T23:49:04.880Z,12.30
2023-05-10T23:54:06.624Z,13.60
2023-05-10T23:59:08.635Z,12.20
